Time;durP1;ratioP1;P1;durP2;ratioP2;P2;SDS_P1;SDS_P2;PMS_P1;PMS_P2;Temp;Humidity;BMP_temperature;BMP_pressure;BME280_temperature;BME280_humidity;BME280_pressure;Samples;Min_cycle;Max_cycle;Signal;HPM_P1;HPM_P2
2022/12/11 00:01:08;;;;;;;32.50;14.57;;;;;;;-2.23;100.00;98204.06;5029376;28;20048;-80
2022/12/11 00:03:33;;;;;;;36.08;14.95;;;;;;;-2.19;100.00;98210.75;5024285;28;20034;-79
2022/12/11 00:05:59;;;;;;;34.55;14.95;;;;;;;-2.04;100.00;98220.00;5012869;28;20033;-78
2022/12/11 00:08:24;;;;;;;28.60;13.25;;;;;;;-2.13;100.00;98196.97;5011941;28;20022;-79
2022/12/11 00:10:49;;;;;;;28.42;13.32;;;;;;;-2.11;100.00;98208.25;5024974;28;20087;-79
2022/12/11 00:13:15;;;;;;;33.60;14.77;;;;;;;-2.03;100.00;98210.22;5004025;28;20471;-78
2022/12/11 00:15:40;;;;;;;55.08;20.00;;;;;;;-1.95;100.00;98209.53;5010385;28;20053;-79
2022/12/11 00:18:06;;;;;;;46.72;17.38;;;;;;;-2.08;100.00;98194.72;5027342;28;20045;-78
2022/12/11 00:20:31;;;;;;;53.47;20.42;;;;;;;-2.08;100.00;98192.06;5012707;28;20053;-78
2022/12/11 00:22:57;;;;;;;35.20;16.00;;;;;;;-2.01;100.00;98195.03;5011913;28;20033;-78
2022/12/11 00:25:22;;;;;;;36.03;15.70;;;;;;;-2.03;100.00;98197.81;5009287;28;20026;-79
2022/12/11 00:27:47;;;;;;;41.97;16.80;;;;;;;-2.17;100.00;98184.97;5007746;28;20388;-78
2022/12/11 00:30:13;;;;;;;35.60;16.08;;;;;;;-1.98;100.00;98214.13;5011044;28;20425;-78
2022/12/11 00:32:38;;;;;;;29.27;13.63;;;;;;;-1.91;100.00;98211.78;5010787;28;20021;-78
2022/12/11 00:35:04;;;;;;;38.47;14.52;;;;;;;-2.00;100.00;98194.88;5011317;28;20559;-78
2022/12/11 00:37:30;;;;;;;32.30;14.35;;;;;;;-2.02;100.00;98194.19;5010799;28;20081;-78
2022/12/11 00:39:55;;;;;;;36.22;15.13;;;;;;;-2.02;100.00;98190.69;5007285;28;20033;-79
2022/12/11 00:42:20;;;;;;;32.70;14.52;;;;;;;-2.02;100.00;98199.50;5025311;28;20562;-78
2022/12/11 00:44:46;;;;;;;33.58;14.60;;;;;;;-2.02;100.00;98199.50;5007639;28;20557;-78
2022/12/11 00:47:11;;;;;;;35.35;15.27;;;;;;;-2.02;100.00;98193.34;5002243;28;20535;-79
2022/12/11 00:49:36;;;;;;;30.38;14.40;;;;;;;-1.92;100.00;98191.53;5003747;28;20536;-78
2022/12/11 00:52:02;;;;;;;28.17;13.65;;;;;;;-1.90;100.00;98188.75;5010715;28;20025;-79
2022/12/11 00:54:27;;;;;;;28.63;13.00;;;;;;;-1.77;100.00;98202.56;5030860;28;20033;-79
2022/12/11 00:56:54;;;;;;;32.08;13.88;;;;;;;-1.72;100.00;98192.38;5013016;28;20029;-79
2022/12/11 00:59:20;;;;;;;28.90;14.15;;;;;;;-1.58;100.00;98199.88;5011446;28;20037;-78
2022/12/11 01:01:45;;;;;;;31.15;13.90;;;;;;;-1.53;100.00;98190.66;5008692;28;20033;-78
2022/12/11 01:04:10;;;;;;;23.63;12.55;;;;;;;-1.46;100.00;98186.47;5024352;28;20502;-78
2022/12/11 01:06:36;;;;;;;24.30;11.75;;;;;;;-1.60;100.00;98175.31;5017170;28;20029;-78
2022/12/11 01:11:45;;;;;;;24.17;11.60;;;;;;;-1.48;100.00;98191.91;5009756;28;20037;-78
2022/12/11 01:14:11;;;;;;;22.25;11.65;;;;;;;-1.60;100.00;98183.28;5009903;28;20022;-78
2022/12/11 01:16:36;;;;;;;25.90;11.25;;;;;;;-1.58;100.00;98189.25;5005366;28;20046;-78
2022/12/11 01:19:02;;;;;;;25.95;12.43;;;;;;;-1.53;100.00;98207.41;5048981;23;20081;-59
2022/12/11 01:21:27;;;;;;;26.85;11.75;;;;;;;-1.49;100.00;98206.16;4984393;28;20397;-57
2022/12/11 01:23:53;;;;;;;27.70;12.55;;;;;;;-1.46;100.00;98213.00;5003573;28;20054;-57
2022/12/11 01:26:18;;;;;;;29.00;12.65;;;;;;;-1.40;100.00;98217.72;4992291;28;20057;-57
2022/12/11 01:28:44;;;;;;;23.83;10.27;;;;;;;-1.42;100.00;98217.03;4987830;28;20030;-57
2022/12/11 01:31:12;;;;;;;24.67;11.27;;;;;;;-1.42;100.00;98219.69;4991099;28;20097;-57
2022/12/11 01:33:38;;;;;;;19.15;10.07;;;;;;;-1.45;100.00;98219.97;4984979;28;20066;-59
2022/12/11 01:36:08;;;;;;;22.23;10.05;;;;;;;-1.43;100.00;98218.03;5004482;28;20060;-59
2022/12/11 01:38:33;;;;;;;19.17;8.45;;;;;;;-1.30;100.00;98212.41;4991836;28;20031;-57
2022/12/11 01:40:59;;;;;;;16.88;8.20;;;;;;;-1.41;100.00;98211.59;4991053;28;20049;-58
2022/12/11 01:43:24;;;;;;;17.50;8.10;;;;;;;-1.45;100.00;98212.84;4993251;28;20070;-55
2022/12/11 01:45:49;;;;;;;18.98;9.20;;;;;;;-1.43;100.00;98212.72;4994043;28;20711;-57
2022/12/11 01:48:19;;;;;;;21.58;9.32;;;;;;;-1.49;100.00;98207.97;4987635;28;20053;-55
2022/12/11 01:50:51;;;;;;;18.95;8.98;;;;;;;-1.56;100.00;98200.56;4987788;28;20057;-55
2022/12/11 01:53:28;;;;;;;18.08;8.57;;;;;;;-1.61;100.00;98200.16;4992383;28;20496;-55
2022/12/11 01:55:55;;;;;;;19.13;8.60;;;;;;;-1.66;100.00;98204.22;4991629;28;20359;-55
2022/12/11 01:58:26;;;;;;;18.23;9.05;;;;;;;-1.72;100.00;98213.56;4992426;28;20092;-55
2022/12/11 02:00:52;;;;;;;16.33;7.70;;;;;;;-1.77;100.00;98214.00;4979856;28;20039;-54
2022/12/11 02:03:17;;;;;;;17.90;8.60;;;;;;;-1.73;100.00;98211.06;4990158;28;20034;-55
2022/12/11 02:05:43;;;;;;;20.55;8.75;;;;;;;-1.61;100.00;98213.44;4992036;28;20375;-55
2022/12/11 02:08:09;;;;;;;13.95;8.07;;;;;;;-1.60;100.00;98212.47;4986974;28;20058;-55
2022/12/11 02:11:13;;;;;;;18.95;8.95;;;;;;;-1.49;100.00;98214.13;4997560;28;20038;-55
2022/12/11 02:13:48;;;;;;;18.35;9.25;;;;;;;-1.46;100.00;98207.69;4984561;28;20402;-55
2022/12/11 02:16:42;;;;;;;19.52;9.13;;;;;;;-1.44;100.00;98221.63;4986018;28;20035;-55
2022/12/11 02:19:32;;;;;;;14.95;7.55;;;;;;;-1.35;100.00;98229.59;4995379;28;20092;-56
2022/12/11 02:22:02;;;;;;;20.33;9.45;;;;;;;-1.40;100.00;98236.31;4996256;28;20116;-55
2022/12/11 02:24:42;;;;;;;18.63;9.32;;;;;;;-1.34;100.00;98225.13;4999448;28;20037;-55
2022/12/11 02:27:10;;;;;;;22.20;9.77;;;;;;;-1.39;100.00;98219.41;5007384;28;20029;-55
2022/12/11 02:29:50;;;;;;;19.15;9.38;;;;;;;-1.25;100.00;98223.44;5012372;28;20054;-55
2022/12/11 02:32:19;;;;;;;19.88;9.27;;;;;;;-1.29;100.00;98220.22;4990869;28;20034;-55
2022/12/11 02:35:04;;;;;;;16.75;6.93;;;;;;;-1.26;100.00;98208.47;4983365;28;20027;-55
2022/12/11 02:37:32;;;;;;;21.48;8.15;;;;;;;-1.32;100.00;98210.72;4998053;28;20034;-55
2022/12/11 02:39:57;;;;;;;18.25;8.65;;;;;;;-1.34;100.00;98202.09;5001063;28;20374;-56
2022/12/11 02:42:29;;;;;;;20.83;9.60;;;;;;;-1.31;100.00;98208.94;4995866;28;20038;-59
2022/12/11 02:44:56;;;;;;;20.80;9.65;;;;;;;-1.30;100.00;98207.94;4990823;28;20466;-55
2022/12/11 02:47:24;;;;;;;21.20;10.45;;;;;;;-1.35;100.00;98207.53;4993188;28;20088;-55
2022/12/11 02:49:51;;;;;;;21.95;10.68;;;;;;;-1.44;100.00;98218.97;4993639;28;20068;-55
2022/12/11 02:52:20;;;;;;;25.92;12.80;;;;;;;-1.53;100.00;98222.50;5005072;28;20069;-55
2022/12/11 02:54:48;;;;;;;24.33;11.57;;;;;;;-1.58;100.00;98217.59;4988318;28;20406;-56
2022/12/11 02:57:20;;;;;;;25.95;11.85;;;;;;;-1.61;100.00;98218.72;5001182;28;20034;-55
2022/12/11 02:59:46;;;;;;;29.48;12.63;;;;;;;-1.70;100.00;98227.53;4987195;28;20058;-55
2022/12/11 03:02:14;;;;;;;27.15;13.32;;;;;;;-1.83;100.00;98214.56;4987751;28;20461;-55
2022/12/11 03:04:40;;;;;;;24.77;11.90;;;;;;;-1.83;100.00;98222.50;4989205;28;20025;-55
2022/12/11 03:07:14;;;;;;;25.20;11.45;;;;;;;-1.83;100.00;98219.88;4995318;28;20058;-55
2022/12/11 03:09:42;;;;;;;29.35;13.30;;;;;;;-1.88;100.00;98227.41;4994733;28;20073;-55
2022/12/11 03:12:10;;;;;;;26.92;13.15;;;;;;;-1.84;100.00;98225.28;4990138;28;20062;-55
2022/12/11 03:14:38;;;;;;;28.17;13.18;;;;;;;-1.86;100.00;98216.63;4987447;28;20041;-55
2022/12/11 03:17:22;;;;;;;28.77;12.60;;;;;;;-1.88;100.00;98223.91;4995909;28;20022;-55
2022/12/11 03:20:19;;;;;;;30.13;13.70;;;;;;;-1.92;100.00;98222.50;4989638;28;20022;-56
2022/12/11 03:22:53;;;;;;;32.65;14.65;;;;;;;-1.96;100.00;98216.66;4986144;28;20109;-55
2022/12/11 03:25:27;;;;;;;29.90;14.02;;;;;;;-1.96;100.00;98214.00;4987202;28;20030;-55
2022/12/11 03:27:57;;;;;;;36.33;15.15;;;;;;;-2.00;100.00;98216.06;4993644;28;20022;-55
2022/12/11 03:30:25;;;;;;;37.15;14.40;;;;;;;-1.99;100.00;98216.94;5003615;28;20080;-55
2022/12/11 03:32:51;;;;;;;30.25;14.45;;;;;;;-1.98;100.00;98218.59;4993879;28;20072;-55
2022/12/11 03:35:23;;;;;;;32.22;15.20;;;;;;;-2.04;100.00;98222.66;4995256;28;20128;-55
2022/12/11 03:37:51;;;;;;;32.80;15.68;;;;;;;-2.07;100.00;98225.56;4997146;28;20544;-55
2022/12/11 03:40:19;;;;;;;35.88;16.90;;;;;;;-2.08;100.00;98213.28;5006155;28;20160;-55
2022/12/11 03:42:49;;;;;;;31.40;14.77;;;;;;;-2.13;100.00;98210.19;4992317;28;20026;-55
2022/12/11 03:45:16;;;;;;;32.53;14.63;;;;;;;-2.11;100.00;98228.63;4987828;28;20041;-55
2022/12/11 03:47:44;;;;;;;34.22;15.00;;;;;;;-2.12;100.00;98219.84;4993771;28;20030;-55
2022/12/11 03:50:12;;;;;;;34.45;14.98;;;;;;;-2.12;100.00;98227.81;5000126;28;20021;-55
2022/12/11 03:52:41;;;;;;;29.77;12.20;;;;;;;-2.02;100.00;98233.94;4988858;28;20097;-55
2022/12/11 03:55:07;;;;;;;;;;;;;;;-1.99;100.00;98238.13;4981844;28;20596;-55
2022/12/11 03:57:36;;;;;;;30.45;13.40;;;;;;;-1.95;100.00;98241.34;4990024;28;19917;-55
2022/12/11 04:00:13;;;;;;;25.57;11.73;;;;;;;-1.95;100.00;98234.22;4985696;28;20030;-55
2022/12/11 04:02:40;;;;;;;35.05;15.02;;;;;;;-1.98;100.00;98230.03;4993366;28;20065;-55
2022/12/11 04:05:06;;;;;;;33.45;14.68;;;;;;;-1.90;100.00;98224.03;4985387;28;20506;-55
2022/12/11 04:07:32;;;;;;;34.30;14.18;;;;;;;-1.89;100.00;98224.88;4984100;28;20066;-55
2022/12/11 04:09:57;;;;;;;35.45;15.25;;;;;;;-1.85;100.00;98232.41;4992888;28;20042;-55
2022/12/11 04:12:22;;;;;;;36.13;15.48;;;;;;;-1.66;100.00;98223.63;4990575;28;20022;-55
2022/12/11 04:15:03;;;;;;;32.15;14.93;;;;;;;-1.67;100.00;98221.94;4986439;28;20030;-55
2022/12/11 04:25:47;;;;;;;33.63;15.70;;;;;;;-1.82;100.00;98216.22;4994729;28;20037;-55
2022/12/11 04:28:12;;;;;;;34.55;14.20;;;;;;;-1.72;100.00;98213.56;5009587;28;20026;-55
2022/12/11 04:30:38;;;;;;;34.13;15.20;;;;;;;-1.67;100.00;98208.69;4990326;28;20410;-55
2022/12/11 04:33:03;;;;;;;31.55;14.77;;;;;;;-1.63;100.00;98222.50;4991191;28;20394;-55
2022/12/11 04:35:29;;;;;;;31.98;15.18;;;;;;;-1.67;100.00;98214.00;4992912;28;20073;-55
2022/12/11 04:37:55;;;;;;;32.30;13.98;;;;;;;-1.69;100.00;98223.91;4993837;28;20393;-55
2022/12/11 04:40:20;;;;;;;30.52;13.45;;;;;;;-1.71;100.00;98201.16;4990003;28;20073;-55
2022/12/11 04:42:46;;;;;;;33.83;14.45;;;;;;;-1.71;100.00;98209.94;4988085;28;20097;-55
2022/12/11 04:45:12;;;;;;;32.97;13.98;;;;;;;-1.61;100.00;98210.78;4998669;28;20030;-55
2022/12/11 04:47:38;;;;;;;33.83;15.85;;;;;;;-1.59;100.00;98208.81;4992158;28;20046;-55
2022/12/11 04:50:07;;;;;;;35.13;13.52;;;;;;;-1.56;100.00;98203.22;4988142;28;20037;-55
2022/12/11 04:52:33;;;;;;;24.40;11.00;;;;;;;-1.56;100.00;98197.91;4990896;28;20048;-55
2022/12/11 04:54:58;;;;;;;28.45;13.40;;;;;;;-1.46;100.00;98197.09;4999234;28;20037;-55
2022/12/11 04:57:23;;;;;;;32.65;15.05;;;;;;;-1.45;100.00;98193.44;5000926;28;20038;-55
2022/12/11 04:59:49;;;;;;;32.38;14.35;;;;;;;-1.45;100.00;98204.88;4992659;28;20113;-55
2022/12/11 05:02:15;;;;;;;35.08;15.13;;;;;;;-1.43;100.00;98194.16;5001797;28;20073;-55
2022/12/11 05:04:41;;;;;;;32.60;14.07;;;;;;;-1.49;100.00;98205.31;4991674;28;20029;-55
2022/12/11 05:07:08;;;;;;;31.38;14.73;;;;;;;-1.46;100.00;98202.41;4990116;28;20023;-55
2022/12/11 05:09:34;;;;;;;35.33;14.43;;;;;;;-1.51;100.00;98200.16;4996075;28;20118;-55
2022/12/11 05:12:00;;;;;;;32.63;14.85;;;;;;;-1.62;100.00;98195.00;4983765;28;20022;-55
2022/12/11 05:14:26;;;;;;;33.92;14.27;;;;;;;-1.64;100.00;98199.63;4989326;28;20532;-55
2022/12/11 05:16:52;;;;;;;35.35;15.15;;;;;;;-1.78;100.00;98203.53;4994752;28;20520;-55
2022/12/11 05:19:17;;;;;;;34.30;14.50;;;;;;;-1.86;100.00;98203.38;4990004;28;20034;-55
2022/12/11 05:21:43;;;;;;;32.72;13.68;;;;;;;-1.92;100.00;98207.44;4988749;28;20492;-55
2022/12/11 05:24:09;;;;;;;34.53;14.98;;;;;;;-1.95;100.00;98201.56;4992355;28;20069;-55
2022/12/11 05:26:34;;;;;;;32.50;14.95;;;;;;;-1.93;100.00;98203.13;4993167;28;20023;-55
2022/12/11 05:29:00;;;;;;;33.10;14.18;;;;;;;-1.89;100.00;98208.97;4993826;28;20440;-55
2022/12/11 05:31:26;;;;;;;39.78;15.65;;;;;;;-1.92;100.00;98203.94;5010758;28;20026;-55
2022/12/11 05:33:53;;;;;;;32.22;14.13;;;;;;;-1.85;100.00;98197.94;4992813;28;20025;-55
2022/12/11 05:36:21;;;;;;;32.97;13.68;;;;;;;-1.75;100.00;98197.13;5008452;28;20120;-55
2022/12/11 05:38:46;;;;;;;24.77;11.20;;;;;;;-1.75;100.00;98194.47;4988666;28;20030;-55
2022/12/11 05:41:15;;;;;;;35.58;15.13;;;;;;;-1.81;100.00;98193.19;4985658;28;20087;-55
2022/12/11 05:43:41;;;;;;;38.97;14.98;;;;;;;-1.80;100.00;98198.38;4989981;28;20030;-55
2022/12/11 05:46:28;;;;;;;36.80;15.02;;;;;;;-1.80;100.00;98190.41;4993083;28;20065;-55
2022/12/11 05:48:59;;;;;;;32.10;15.00;;;;;;;-1.85;100.00;98191.81;4996605;28;20138;-55
2022/12/11 05:51:25;;;;;;;38.75;14.60;;;;;;;-1.89;100.00;98190.41;4990151;28;20041;-55
2022/12/11 05:53:52;;;;;;;34.83;13.98;;;;;;;-1.92;100.00;98185.38;4984756;28;20105;-55
2022/12/11 05:56:20;;;;;;;44.22;15.60;;;;;;;-1.89;100.00;98179.81;5010676;28;20025;-55
2022/12/11 05:58:47;;;;;;;33.35;14.45;;;;;;;-1.98;100.00;98177.03;5002991;28;20094;-55
2022/12/11 06:01:29;;;;;;;35.00;15.05;;;;;;;-2.03;100.00;98175.75;4986700;28;20248;-55
2022/12/11 06:03:55;;;;;;;35.25;15.15;;;;;;;-2.15;100.00;98160.97;4985865;28;20030;-55
2022/12/11 06:06:21;;;;;;;34.42;15.20;;;;;;;-2.11;100.00;98171.16;4992683;28;20026;-55
2022/12/11 06:08:51;;;;;;;41.63;14.82;;;;;;;-2.03;100.00;98179.25;4990561;28;20029;-55
2022/12/11 06:11:17;;;;;;;38.08;15.65;;;;;;;-2.09;100.00;98174.50;4986941;28;20386;-55
2022/12/11 06:13:42;;;;;;;41.50;15.40;;;;;;;-2.11;100.00;98171.16;5002635;28;20031;-55
2022/12/11 06:16:08;;;;;;;40.30;15.93;;;;;;;-2.20;100.00;98166.72;4982916;28;20393;-55
2022/12/11 06:18:37;;;;;;;39.90;16.70;;;;;;;-2.21;100.00;98170.31;4986321;28;20030;-55
2022/12/11 06:21:29;;;;;;;38.87;16.47;;;;;;;-2.22;100.00;98169.47;5002635;28;20022;-55
2022/12/11 06:23:57;;;;;;;38.55;16.10;;;;;;;-2.23;100.00;98172.25;4983420;28;20037;-56
2022/12/11 06:26:23;;;;;;;39.03;15.27;;;;;;;-2.21;100.00;98171.16;4991424;28;20045;-55
2022/12/11 06:28:49;;;;;;;47.03;16.33;;;;;;;-2.16;100.00;98168.09;4976231;28;20031;-55
2022/12/11 06:31:15;;;;;;;39.17;15.90;;;;;;;-2.12;100.00;98166.84;4987522;28;20027;-55
2022/12/11 06:33:41;;;;;;;38.45;15.52;;;;;;;-2.09;100.00;98166.56;4984706;28;20053;-57
2022/12/11 06:36:12;;;;;;;44.80;17.10;;;;;;;-2.02;100.00;98165.03;4981754;28;20088;-55
2022/12/11 06:38:38;;;;;;;40.38;17.23;;;;;;;-2.00;100.00;98168.34;4987185;28;20033;-56
2022/12/11 06:41:05;;;;;;;47.10;17.08;;;;;;;-1.95;100.00;98156.50;4996936;28;20025;-56
2022/12/11 06:43:32;;;;;;;37.75;16.13;;;;;;;-1.97;100.00;98164.59;4993945;28;20046;-55
2022/12/11 06:45:58;;;;;;;39.72;15.45;;;;;;;-2.00;100.00;98170.19;5000808;28;20030;-55
2022/12/11 06:48:23;;;;;;;41.72;16.17;;;;;;;-2.01;100.00;98174.66;4992118;28;20460;-55
2022/12/11 06:50:49;;;;;;;41.08;16.90;;;;;;;-2.01;100.00;98174.66;4993864;28;20034;-55
2022/12/11 06:53:15;;;;;;;40.95;17.50;;;;;;;-1.98;100.00;98176.19;5003971;28;20600;-56
2022/12/11 06:55:41;;;;;;;39.38;16.08;;;;;;;-1.93;100.00;98178.44;4993945;28;20030;-55
2022/12/11 06:58:07;;;;;;;41.50;16.23;;;;;;;-1.90;100.00;98180.78;4996820;28;20040;-55
2022/12/11 07:00:37;;;;;;;34.85;15.20;;;;;;;-1.79;100.00;98183.28;4993714;28;20516;-56
2022/12/11 07:03:03;;;;;;;34.75;15.40;;;;;;;-1.77;100.00;98189.28;4996415;28;20036;-55
2022/12/11 07:05:30;;;;;;;39.75;15.98;;;;;;;-1.76;100.00;98183.00;4992641;28;20393;-55
2022/12/11 07:07:55;;;;;;;38.00;15.98;;;;;;;-1.77;100.00;98184.00;4988411;28;20029;-55
2022/12/11 07:10:22;;;;;;;39.22;15.98;;;;;;;-1.76;100.00;98190.97;4991859;28;20026;-55
2022/12/11 07:12:47;;;;;;;38.65;15.63;;;;;;;-1.82;100.00;98188.88;4994254;28;20029;-56
2022/12/11 07:15:16;;;;;;;41.72;16.02;;;;;;;-1.89;100.00;98190.41;4995472;28;20030;-55
2022/12/11 07:17:42;;;;;;;42.35;16.33;;;;;;;-1.89;100.00;98196.53;5011233;28;20022;-55
2022/12/11 07:20:08;;;;;;;34.92;15.70;;;;;;;-2.14;100.00;98149.41;5011371;23;20034;-79
2022/12/11 07:22:33;;;;;;;38.03;15.65;;;;;;;-2.03;100.00;98167.81;4979752;28;20458;-80
2022/12/11 07:24:59;;;;;;;39.08;16.58;;;;;;;-1.99;100.00;98185.97;4968312;28;20035;-79
2022/12/11 07:27:24;;;;;;;41.95;17.17;;;;;;;-1.89;100.00;98198.34;4989129;23;20160;-70
2022/12/11 07:29:50;;;;;;;45.10;17.90;;;;;;;-1.94;100.00;98203.25;4989487;28;20126;-70
2022/12/11 07:32:15;;;;;;;48.70;19.90;;;;;;;-1.92;100.00;98204.78;4988776;28;20064;-69
2022/12/11 07:34:41;;;;;;;42.58;17.00;;;;;;;-1.85;100.00;98207.72;5000483;28;20141;-70
2022/12/11 07:37:06;;;;;;;48.22;17.92;;;;;;;-1.70;100.00;98208.13;4991117;28;20042;-71
2022/12/11 07:39:32;;;;;;;43.92;17.85;;;;;;;-1.73;100.00;98206.59;4996043;28;20034;-70
2022/12/11 07:41:57;;;;;;;45.67;17.58;;;;;;;-1.64;100.00;98205.75;4996034;28;20037;-70
2022/12/11 07:44:24;;;;;;;41.90;16.92;;;;;;;-1.62;100.00;98201.16;4987118;28;20041;-70
2022/12/11 07:46:49;;;;;;;48.75;17.73;;;;;;;-1.58;100.00;98202.53;4993173;28;20038;-70
2022/12/11 07:49:16;;;;;;;39.20;16.40;;;;;;;-1.61;100.00;98205.47;4994028;28;20061;-69
2022/12/11 07:51:42;;;;;;;46.35;17.92;;;;;;;-1.53;100.00;98206.59;4995942;28;20084;-70
2022/12/11 07:54:15;;;;;;;53.92;19.23;;;;;;;-1.55;100.00;98204.06;4992263;28;20109;-69
2022/12/11 07:56:41;;;;;;;52.90;19.75;;;;;;;-1.58;100.00;98207.81;4994150;28;20065;-69
2022/12/11 07:59:07;;;;;;;46.47;19.55;;;;;;;-1.56;100.00;98205.06;4990550;28;20034;-69
2022/12/11 08:01:35;;;;;;;46.40;19.63;;;;;;;-1.51;100.00;98210.75;4989211;28;20117;-69
2022/12/11 08:04:02;;;;;;;40.85;17.55;;;;;;;-1.44;100.00;98205.72;5002520;28;20022;-66
2022/12/11 08:06:31;;;;;;;44.22;18.20;;;;;;;-1.28;100.00;98205.97;4993600;28;20031;-65
2022/12/11 08:08:57;;;;;;;45.15;17.63;;;;;;;-1.06;100.00;98193.34;5000411;28;20526;-65
2022/12/11 08:11:23;;;;;;;44.75;18.42;;;;;;;-0.83;100.00;98193.81;4983428;28;20026;-65
2022/12/11 08:13:49;;;;;;;41.83;17.55;;;;;;;-0.59;100.00;98180.00;4994952;28;20516;-66
2022/12/11 08:16:21;;;;;;;44.47;18.67;;;;;;;-0.61;100.00;98171.34;5019391;23;20033;-67
2022/12/11 08:19:20;;;;;;;47.72;19.08;;;;;;;-0.33;100.00;98173.00;5068021;23;20051;-65
2022/12/11 08:21:45;;;;;;;43.47;17.83;;;;;;;-0.34;100.00;98168.69;4972970;28;20475;-68
2022/12/11 08:24:19;;;;;;;44.80;18.20;;;;;;;-0.28;100.00;98168.06;4971585;28;20081;-68
2022/12/11 08:26:44;;;;;;;45.25;17.73;;;;;;;-0.33;100.00;98170.34;4967976;28;20386;-68
2022/12/11 08:29:10;;;;;;;46.58;17.65;;;;;;;-0.34;100.00;98173.13;4975133;28;20026;-68
2022/12/11 08:31:35;;;;;;;40.40;18.02;;;;;;;-0.46;100.00;98167.22;4969308;28;20114;-70
2022/12/11 08:34:01;;;;;;;51.10;18.95;;;;;;;-0.59;100.00;98172.88;4968682;28;20031;-72
2022/12/11 08:36:27;;;;;;;42.13;18.40;;;;;;;-0.71;100.00;98166.94;4972957;28;20026;-71
2022/12/11 08:38:54;;;;;;;46.53;19.48;;;;;;;-0.88;100.00;98181.81;4967455;28;20034;-68
2022/12/11 08:41:26;;;;;;;48.30;20.00;;;;;;;-1.03;100.00;98183.25;4978307;28;20038;-71
2022/12/11 08:43:53;;;;;;;50.83;20.60;;;;;;;-1.20;100.00;98181.38;4971598;28;20470;-70
2022/12/11 08:46:24;;;;;;;46.92;19.38;;;;;;;-1.47;100.00;98182.13;4970546;28;20107;-71
2022/12/11 08:49:00;;;;;;;53.03;21.02;;;;;;;-1.54;100.00;98195.13;4986864;28;20036;-71
2022/12/11 08:51:28;;;;;;;48.15;19.42;;;;;;;-1.56;100.00;98194.44;4994154;28;20500;-70
2022/12/11 08:53:56;;;;;;;44.42;15.95;;;;;;;-1.42;100.00;98195.81;4972066;28;20057;-70
2022/12/11 08:56:22;;;;;;;55.45;20.85;;;;;;;-1.25;100.00;98189.78;4975987;28;20478;-69
2022/12/11 08:58:48;;;;;;;52.92;21.20;;;;;;;-1.18;100.00;98196.19;4982631;28;20022;-65
2022/12/11 09:01:23;;;;;;;48.40;19.15;;;;;;;-1.12;100.00;98190.28;4971820;28;20096;-64
2022/12/11 09:03:50;;;;;;;51.85;21.33;;;;;;;-1.22;100.00;98184.16;4965516;28;20471;-65
2022/12/11 09:06:18;;;;;;;45.60;19.25;;;;;;;-1.06;100.00;98190.69;4969805;28;20058;-64
2022/12/11 09:08:45;;;;;;;38.03;13.77;;;;;;;-1.04;100.00;98186.91;4972214;28;20065;-65
2022/12/11 09:11:19;;;;;;;50.88;19.45;;;;;;;-0.88;100.00;98188.94;4970898;28;20170;-65
2022/12/11 09:13:45;;;;;;;44.17;17.83;;;;;;;-0.77;100.00;98180.78;4986602;28;20086;-65
2022/12/11 09:16:14;;;;;;;40.75;17.00;;;;;;;-0.55;100.00;98181.38;4968626;28;20500;-67
2022/12/11 09:18:40;;;;;;;41.67;17.20;;;;;;;-0.56;100.00;98185.03;4970816;28;20033;-68
2022/12/11 09:21:12;;;;;;;47.38;17.52;;;;;;;-0.43;100.00;98177.53;4971591;28;20439;-68
2022/12/11 09:23:38;;;;;;;43.80;16.83;;;;;;;-0.44;100.00;98183.84;4973369;28;20035;-68
2022/12/11 09:26:05;;;;;;;39.80;16.58;;;;;;;-0.35;100.00;98180.28;4959238;28;20051;-68
2022/12/11 09:28:30;;;;;;;37.10;15.75;;;;;;;-0.29;100.00;98186.81;4981484;28;20073;-68
2022/12/11 09:30:56;;;;;;;32.83;14.95;;;;;;;-0.39;100.00;98181.56;4969836;28;20026;-68
2022/12/11 09:33:21;;;;;;;41.45;15.60;;;;;;;-0.10;100.00;98175.22;4965132;28;20042;-67
2022/12/11 09:35:56;;;;;;;35.90;14.88;;;;;;;-0.06;100.00;98169.44;4973037;28;20467;-67
2022/12/11 09:38:23;;;;;;;39.78;16.20;;;;;;;0.09;100.00;98175.06;4973356;28;20027;-67
2022/12/11 09:40:48;;;;;;;36.03;15.32;;;;;;;-0.03;100.00;98177.13;4992816;28;20108;-68
2022/12/11 09:43:33;;;;;;;38.67;15.82;;;;;;;0.21;100.00;98173.84;4980861;28;20121;-69
2022/12/11 09:46:04;;;;;;;34.85;15.82;;;;;;;0.22;100.00;98172.84;4970385;28;20034;-68
2022/12/11 09:48:33;;;;;;;41.13;16.55;;;;;;;0.10;100.00;98159.94;4971196;28;20024;-67
2022/12/11 09:51:04;;;;;;;34.42;14.82;;;;;;;-0.08;100.00;98162.59;4982613;28;20022;-68
2022/12/11 09:53:34;;;;;;;37.83;16.80;;;;;;;0.09;100.00;98155.63;4972003;28;20125;-67
2022/12/11 09:56:08;;;;;;;39.17;17.45;;;;;;;0.31;100.00;98156.94;4969087;28;20462;-68
2022/12/11 09:58:47;;;;;;;39.35;16.02;;;;;;;0.41;100.00;98157.69;4973101;28;20426;-67
2022/12/11 10:01:47;;;;;;;39.78;16.83;;;;;;;0.48;100.00;98145.44;4970802;28;20387;-68
2022/12/11 10:04:34;;;;;;;40.17;17.30;;;;;;;0.41;100.00;98149.72;4965756;28;20475;-68
2022/12/11 10:07:19;;;;;;;37.50;16.20;;;;;;;0.43;100.00;98153.91;4967876;28;20391;-68
2022/12/11 10:10:08;;;;;;;38.03;15.90;;;;;;;0.25;100.00;98149.59;4983601;28;20471;-67
2022/12/11 10:12:45;;;;;;;38.30;16.15;;;;;;;0.31;100.00;98146.31;4965844;28;20034;-68
2022/12/11 10:15:41;;;;;;;37.00;15.57;;;;;;;0.00;100.00;98138.75;4970694;28;20101;-64
2022/12/11 10:18:13;;;;;;;40.08;17.08;;;;;;;0.32;100.00;98143.50;4969288;28;20525;-64
2022/12/11 10:20:41;;;;;;;37.72;15.25;;;;;;;0.43;100.00;98148.56;4974141;28;20031;-64
2022/12/11 10:23:12;;;;;;;36.53;17.25;;;;;;;0.54;100.00;98144.81;4970131;28;20502;-64
2022/12/11 10:25:50;;;;;;;40.85;16.65;;;;;;;0.64;100.00;98137.56;4979872;28;20034;-64
2022/12/11 10:28:18;;;;;;;38.65;16.50;;;;;;;0.97;100.00;98124.44;4974565;28;20645;-64
2022/12/11 10:31:03;;;;;;;36.13;14.80;;;;;;;1.23;100.00;98124.41;4970197;28;20065;-68
2022/12/11 10:33:56;;;;;;;36.95;15.25;;;;;;;1.20;100.00;98111.38;4990872;28;20042;-68
2022/12/11 10:36:29;;;;;;;36.90;15.73;;;;;;;1.00;100.00;98116.13;4965477;28;20034;-62
2022/12/11 10:38:55;;;;;;;35.45;14.70;;;;;;;1.19;100.00;98112.38;4973794;28;20025;-61
2022/12/11 10:41:35;;;;;;;35.33;15.50;;;;;;;1.40;100.00;98105.78;4970937;28;20026;-68
2022/12/11 10:44:20;;;;;;;35.95;14.80;;;;;;;1.48;100.00;98106.63;4968853;28;20022;-68
2022/12/11 10:46:47;;;;;;;46.30;16.42;;;;;;;1.50;100.00;98106.47;4989772;28;20034;-65
2022/12/11 10:49:50;;;;;;;39.33;16.17;;;;;;;1.74;100.00;98103.84;4974362;28;20031;-68
2022/12/11 10:52:32;;;;;;;34.53;15.57;;;;;;;1.95;100.00;98097.22;4957768;28;20058;-68
2022/12/11 10:55:00;;;;;;;36.45;15.38;;;;;;;2.00;100.00;98099.38;4989086;28;20026;-68
2022/12/11 10:57:32;;;;;;;26.03;11.80;;;;;;;1.68;100.00;98101.84;4974556;28;20435;-68
2022/12/11 10:59:59;;;;;;;34.38;16.10;;;;;;;1.70;100.00;98101.66;4971578;28;20038;-68
2022/12/11 11:02:29;;;;;;;36.72;15.35;;;;;;;1.65;100.00;98099.53;4975124;28;20462;-69
2022/12/11 11:04:57;;;;;;;36.75;16.27;;;;;;;1.53;100.00;98093.66;4982016;28;20162;-69
2022/12/11 11:07:25;;;;;;;35.97;15.63;;;;;;;1.64;100.00;98091.66;4983757;28;20053;-69
2022/12/11 11:10:16;;;;;;;33.47;14.70;;;;;;;1.80;100.00;98083.69;4980259;28;20029;-65
2022/12/11 11:12:48;;;;;;;32.88;15.27;;;;;;;1.94;100.00;98082.22;4970580;28;20034;-69
2022/12/11 11:15:18;;;;;;;37.70;15.70;;;;;;;1.61;100.00;98081.34;4974825;28;20085;-69
2022/12/11 11:17:47;;;;;;;35.25;15.82;;;;;;;1.78;100.00;98083.00;4967028;28;20038;-68
2022/12/11 11:20:25;;;;;;;37.47;15.55;;;;;;;1.79;100.00;98079.38;4984685;28;20037;-69
2022/12/11 11:23:01;;;;;;;33.33;15.10;;;;;;;1.66;100.00;98082.50;4962581;28;20034;-69
2022/12/11 11:25:29;;;;;;;33.20;14.73;;;;;;;1.84;100.00;98081.53;4989619;28;20026;-68
2022/12/11 11:28:02;;;;;;;34.60;15.57;;;;;;;2.00;100.00;98078.03;4974889;28;20027;-69
2022/12/11 11:30:32;;;;;;;36.55;15.40;;;;;;;2.08;100.00;98076.19;4987295;28;20034;-66
2022/12/11 11:33:18;;;;;;;36.45;15.75;;;;;;;2.15;100.00;98076.38;4970692;28;20459;-65